Terminal Aerodrome Forecast
Issued by NWS

Home | Current Version | Previous Version | Graphics & Text | Print | Product List | Glossary On
Versions: 1 2 3 4 5 6 7 8 9 10 11 12 13 14 15 16 17 18 19 20 21 22 23 24 25 26 27 28 29 30 31
084
FTUS45 KGGW 260037 RRA
TAFGDV
TAF
KGDV 260037Z 2601/2624 33008KT P6SM SCT130
     FM260900 29004KT P6SM SCT140
     FM261200 28004KT P6SM BKN140 PROB30 2612/2618 -SHRA OVC040
     FM261800 29009KT P6SM -SHRA BKN045
      AMD LTD TO CLD VIS AND WIND=

USA.gov is the U.S. government's official web portal to all federal, state and local government web resources and services.